Time;durP1;ratioP1;P1;durP2;ratioP2;P2;SDS_P1;SDS_P2;PMS_P1;PMS_P2;Temp;Humidity;BMP_temperature;BMP_pressure;BME280_temperature;BME280_humidity;BME280_pressure;Samples;Min_cycle;Max_cycle;Signal;HPM_P1;HPM_P2
2021/05/04 00:00:51;;;;;;;5.80;4.38;;;;;;;;;;5055411;28;20048;-84
2021/05/04 00:03:17;;;;;;;7.75;4.90;;;;;;;;;;5065213;28;20440;-84
2021/05/04 00:05:43;;;;;;;5.60;4.25;;;;;;;;;;5057467;28;20055;-84
2021/05/04 00:08:09;;;;;;;6.30;4.78;;;;;;;;;;5052903;28;20070;-84
2021/05/04 00:10:35;;;;;;;6.80;4.68;;;;;;;;;;5053698;28;20484;-84
2021/05/04 00:13:01;;;;;;;5.97;4.43;;;;;;;;;;5062125;28;20047;-84
2021/05/04 00:15:27;;;;;;;8.95;4.60;;;;;;;;;;5043367;28;20026;-84
2021/05/04 00:17:53;;;;;;;5.65;3.88;;;;;;;;;;5075573;28;20021;-84
2021/05/04 00:20:19;;;;;;;6.22;3.92;;;;;;;;;;5055791;28;20021;-85
2021/05/04 00:22:45;;;;;;;6.32;3.83;;;;;;;;;;5044127;28;20112;-85
2021/05/04 00:25:11;;;;;;;5.63;3.88;;;;;;;;;;5055717;28;20028;-85
2021/05/04 00:27:37;;;;;;;5.65;3.80;;;;;;;;;;5055061;28;20131;-84
2021/05/04 00:30:04;;;;;;;5.18;3.92;;;;;;;;;;5049822;28;20032;-84
2021/05/04 00:32:30;;;;;;;4.88;3.97;;;;;;;;;;5054983;28;20071;-85
2021/05/04 00:34:56;;;;;;;5.15;3.60;;;;;;;;;;5055777;28;20020;-85
2021/05/04 00:37:22;;;;;;;6.72;3.97;;;;;;;;;;5043359;28;20476;-84
2021/05/04 00:39:48;;;;;;;5.05;3.33;;;;;;;;;;5056983;28;20028;-84
2021/05/04 00:42:14;;;;;;;8.73;3.65;;;;;;;;;;5045008;28;20032;-85
2021/05/04 00:44:40;;;;;;;4.95;3.95;;;;;;;;;;5074480;28;20388;-85
2021/05/04 00:47:06;;;;;;;5.53;3.20;;;;;;;;;;5049127;28;20529;-85
2021/05/04 00:49:32;;;;;;;4.72;3.60;;;;;;;;;;5056690;28;20032;-85
2021/05/04 00:51:58;;;;;;;4.97;3.53;;;;;;;;;;5072870;28;20114;-85
2021/05/04 00:54:24;;;;;;;4.32;3.67;;;;;;;;;;5055049;28;20036;-85
2021/05/04 00:56:54;;;;;;;7.18;3.85;;;;;;;;;;5073599;28;20036;-85
2021/05/04 00:59:24;;;;;;;4.90;3.40;;;;;;;;;;5071208;28;20070;-85
2021/05/04 01:01:53;;;;;;;6.97;3.47;;;;;;;;;;5045297;28;20369;-85
2021/05/04 01:04:20;;;;;;;5.60;3.67;;;;;;;;;;5052741;28;20037;-85
2021/05/04 01:06:46;;;;;;;5.93;3.22;;;;;;;;;;5056054;28;20549;-85
2021/05/04 01:09:14;;;;;;;4.85;3.28;;;;;;;;;;5053757;28;20044;-85
2021/05/04 01:11:40;;;;;;;4.22;3.22;;;;;;;;;;5046558;28;20029;-85
2021/05/04 01:14:06;;;;;;;4.80;3.05;;;;;;;;;;5055949;28;20027;-85
2021/05/04 01:16:32;;;;;;;6.22;3.67;;;;;;;;;;5046437;28;20252;-85
2021/05/04 01:18:58;;;;;;;5.18;3.38;;;;;;;;;;5055598;28;20020;-85
2021/05/04 01:21:24;;;;;;;4.80;3.33;;;;;;;;;;5065124;28;20084;-85
2021/05/04 01:23:50;;;;;;;7.38;3.53;;;;;;;;;;5055953;28;20032;-85
2021/05/04 01:26:17;;;;;;;4.10;3.20;;;;;;;;;;5049536;28;20435;-85
2021/05/04 01:28:43;;;;;;;5.63;3.45;;;;;;;;;;5072421;28;20032;-85
2021/05/04 01:31:09;;;;;;;4.85;3.00;;;;;;;;;;5062969;28;20074;-85
2021/05/04 01:33:35;;;;;;;5.60;3.90;;;;;;;;;;5070046;28;20107;-85
2021/05/04 01:36:01;;;;;;;4.78;3.75;;;;;;;;;;5072981;28;20027;-85
2021/05/04 01:38:27;;;;;;;4.70;3.65;;;;;;;;;;5054394;28;20519;-85
2021/05/04 01:40:53;;;;;;;7.80;3.50;;;;;;;;;;5054807;28;20028;-85
2021/05/04 01:43:19;;;;;;;3.97;3.20;;;;;;;;;;5053774;28;20111;-84
2021/05/04 01:45:45;;;;;;;3.83;2.95;;;;;;;;;;5062382;28;20381;-84
2021/05/04 01:48:11;;;;;;;7.47;3.70;;;;;;;;;;5048121;28;20083;-85
2021/05/04 01:50:38;;;;;;;12.52;5.10;;;;;;;;;;5063460;28;20028;-85
2021/05/04 01:53:04;;;;;;;5.30;3.70;;;;;;;;;;5038874;28;20029;-85
2021/05/04 01:55:30;;;;;;;4.63;3.53;;;;;;;;;;5050325;28;20039;-84
2021/05/04 01:57:55;;;;;;;6.50;4.00;;;;;;;;;;5050453;28;20059;-84
2021/05/04 02:00:22;;;;;;;5.50;3.72;;;;;;;;;;5064445;28;20078;-85
2021/05/04 02:02:47;;;;;;;6.25;4.38;;;;;;;;;;5053742;28;20047;-85
2021/05/04 02:05:14;;;;;;;4.72;3.33;;;;;;;;;;5054825;28;20033;-85
2021/05/04 02:07:40;;;;;;;6.07;3.45;;;;;;;;;;5060363;28;20115;-85
2021/05/04 02:10:07;;;;;;;6.15;3.80;;;;;;;;;;5044773;28;20115;-85
2021/05/04 02:12:33;;;;;;;5.78;3.50;;;;;;;;;;5054516;28;20550;-85
2021/05/04 02:14:59;;;;;;;6.28;3.47;;;;;;;;;;5055031;28;20369;-85
2021/05/04 02:17:25;;;;;;;6.68;4.50;;;;;;;;;;5054060;28;20028;-85
2021/05/04 02:19:51;;;;;;;5.93;3.85;;;;;;;;;;5046112;28;20476;-85
2021/05/04 02:22:17;;;;;;;5.50;3.90;;;;;;;;;;5038032;28;20025;-85
2021/05/04 02:24:43;;;;;;;6.28;3.78;;;;;;;;;;5035800;28;20028;-84
2021/05/04 02:27:09;;;;;;;4.60;3.65;;;;;;;;;;5041194;28;20040;-85
2021/05/04 02:29:35;;;;;;;9.73;4.57;;;;;;;;;;5054260;28;20048;-85
2021/05/04 02:32:01;;;;;;;6.10;3.85;;;;;;;;;;5054302;28;20226;-85
2021/05/04 02:34:27;;;;;;;7.13;4.07;;;;;;;;;;5053501;28;20032;-85
2021/05/04 02:36:53;;;;;;;6.93;4.32;;;;;;;;;;5055141;28;20020;-84
2021/05/04 02:39:18;;;;;;;6.38;4.20;;;;;;;;;;5053707;28;20426;-84
2021/05/04 02:41:44;;;;;;;5.60;3.80;;;;;;;;;;5054144;28;20358;-84
2021/05/04 02:44:10;;;;;;;5.78;4.03;;;;;;;;;;5044490;28;20040;-84
2021/05/04 02:46:36;;;;;;;6.28;3.63;;;;;;;;;;5050585;28;20047;-84
2021/05/04 02:49:03;;;;;;;8.07;4.20;;;;;;;;;;5054570;28;20024;-84
2021/05/04 02:51:29;;;;;;;5.15;3.80;;;;;;;;;;5068083;28;20029;-84
2021/05/04 02:53:55;;;;;;;6.75;4.22;;;;;;;;;;5050684;28;20084;-84
2021/05/04 02:56:21;;;;;;;6.18;4.43;;;;;;;;;;5049074;28;20047;-84
2021/05/04 02:58:47;;;;;;;7.55;4.32;;;;;;;;;;5053400;28;20024;-84
2021/05/04 03:01:13;;;;;;;6.93;4.32;;;;;;;;;;5049346;28;20025;-84
2021/05/04 03:03:40;;;;;;;5.97;4.35;;;;;;;;;;5054481;28;20061;-84
2021/05/04 03:06:06;;;;;;;7.10;4.40;;;;;;;;;;5055853;28;20438;-84
2021/05/04 03:08:33;;;;;;;8.82;4.72;;;;;;;;;;5057456;28;20419;-84
2021/05/04 03:10:59;;;;;;;7.97;4.30;;;;;;;;;;5057449;28;20039;-84
2021/05/04 03:13:26;;;;;;;6.85;4.30;;;;;;;;;;5058639;28;20506;-85
2021/05/04 03:15:52;;;;;;;6.88;4.45;;;;;;;;;;5072967;28;20108;-84
2021/05/04 03:18:18;;;;;;;7.65;4.80;;;;;;;;;;5057528;28;20512;-84
2021/05/04 03:20:45;;;;;;;7.22;4.63;;;;;;;;;;5053571;28;20029;-84
2021/05/04 03:23:11;;;;;;;7.53;5.13;;;;;;;;;;5067941;28;20020;-84
2021/05/04 03:25:37;;;;;;;9.05;4.93;;;;;;;;;;5051793;28;20040;-85
2021/05/04 03:28:03;;;;;;;9.43;5.20;;;;;;;;;;5057939;28;20185;-84
2021/05/04 03:30:29;;;;;;;9.82;5.05;;;;;;;;;;5055162;28;20036;-84
2021/05/04 03:32:55;;;;;;;6.35;4.63;;;;;;;;;;5071693;28;20103;-85
2021/05/04 03:35:21;;;;;;;8.75;5.10;;;;;;;;;;5054716;28;20115;-84
2021/05/04 03:37:48;;;;;;;7.10;4.93;;;;;;;;;;5056444;28;20021;-84
2021/05/04 03:40:14;;;;;;;7.13;5.25;;;;;;;;;;5075201;28;20154;-85
2021/05/04 03:42:40;;;;;;;8.00;4.93;;;;;;;;;;5053114;28;20020;-85
2021/05/04 03:45:07;;;;;;;12.02;5.68;;;;;;;;;;5054655;28;20122;-84
2021/05/04 03:47:36;;;;;;;9.40;5.82;;;;;;;;;;5056366;28;20043;-85
2021/05/04 03:50:02;;;;;;;8.27;5.45;;;;;;;;;;5050073;28;20055;-85
2021/05/04 03:52:28;;;;;;;8.13;5.20;;;;;;;;;;5067063;28;20109;-84
2021/05/04 03:54:54;;;;;;;9.45;5.90;;;;;;;;;;5048392;28;20401;-85
2021/05/04 03:57:20;;;;;;;9.02;5.60;;;;;;;;;;5047997;28;20028;-84
2021/05/04 03:59:46;;;;;;;7.75;5.50;;;;;;;;;;5071210;28;20032;-85
2021/05/04 04:02:12;;;;;;;7.82;4.95;;;;;;;;;;5038571;28;20028;-85
2021/05/04 04:04:38;;;;;;;8.50;5.35;;;;;;;;;;5052860;28;20029;-84
2021/05/04 04:07:04;;;;;;;10.77;5.60;;;;;;;;;;5050877;28;20017;-84
2021/05/04 04:09:30;;;;;;;6.93;4.80;;;;;;;;;;5046880;28;20126;-84
2021/05/04 04:11:56;;;;;;;7.85;4.90;;;;;;;;;;5063448;28;20441;-84
2021/05/04 04:14:22;;;;;;;10.55;6.00;;;;;;;;;;5070221;28;20023;-84
2021/05/04 04:16:48;;;;;;;8.10;5.18;;;;;;;;;;5071173;28;20476;-84
2021/05/04 04:19:14;;;;;;;8.93;5.22;;;;;;;;;;5049953;28;20017;-85
2021/05/04 04:21:40;;;;;;;8.00;5.57;;;;;;;;;;5045468;28;20024;-84
2021/05/04 04:24:06;;;;;;;9.00;5.35;;;;;;;;;;5055373;28;20051;-84
2021/05/04 04:26:32;;;;;;;13.35;6.45;;;;;;;;;;5062346;28;20443;-85
2021/05/04 04:28:58;;;;;;;9.82;5.78;;;;;;;;;;5043179;28;20024;-85
2021/05/04 04:31:24;;;;;;;8.95;5.13;;;;;;;;;;5053403;28;20127;-85
2021/05/04 04:33:50;;;;;;;8.27;5.18;;;;;;;;;;5057391;28;20465;-84
2021/05/04 04:36:16;;;;;;;7.28;5.55;;;;;;;;;;5051788;28;20074;-84
2021/05/04 04:38:42;;;;;;;9.45;5.05;;;;;;;;;;5057694;28;20021;-85
2021/05/04 04:41:08;;;;;;;8.52;5.28;;;;;;;;;;5077288;28;20032;-84
2021/05/04 04:43:34;;;;;;;7.90;4.68;;;;;;;;;;5044390;28;20162;-84
2021/05/04 04:46:00;;;;;;;8.18;5.38;;;;;;;;;;5043018;28;20029;-84
2021/05/04 04:48:26;;;;;;;8.63;5.38;;;;;;;;;;5058884;28;20071;-84
2021/05/04 04:50:52;;;;;;;8.05;5.38;;;;;;;;;;5071240;28;20032;-85
2021/05/04 04:53:18;;;;;;;7.30;4.80;;;;;;;;;;5041301;28;20059;-85
2021/05/04 04:55:44;;;;;;;7.85;4.97;;;;;;;;;;5039350;28;20049;-84
2021/05/04 04:58:10;;;;;;;6.88;4.75;;;;;;;;;;5054784;28;20029;-84
2021/05/04 05:00:36;;;;;;;6.70;4.80;;;;;;;;;;5055893;28;20056;-84
2021/05/04 05:03:02;;;;;;;9.68;5.13;;;;;;;;;;5055300;28;20044;-85
2021/05/04 05:05:28;;;;;;;8.38;5.20;;;;;;;;;;5058395;28;20032;-85
2021/05/04 05:07:54;;;;;;;8.18;5.00;;;;;;;;;;5055791;28;20106;-86
2021/05/04 05:10:20;;;;;;;7.18;4.70;;;;;;;;;;5049701;28;20028;-85
2021/05/04 05:12:46;;;;;;;7.22;4.78;;;;;;;;;;5057150;28;20129;-87
2021/05/04 05:15:13;;;;;;;6.95;5.25;;;;;;;;;;5054082;28;20817;-85
2021/05/04 05:17:39;;;;;;;7.82;5.28;;;;;;;;;;5052760;28;20031;-84
2021/05/04 05:20:06;;;;;;;7.35;5.07;;;;;;;;;;5059397;28;20021;-86
2021/05/04 05:22:32;;;;;;;9.80;5.18;;;;;;;;;;5073904;28;20853;-85
2021/05/04 05:24:58;;;;;;;10.93;5.15;;;;;;;;;;5055947;28;20488;-85
2021/05/04 05:27:24;;;;;;;10.27;5.50;;;;;;;;;;5056769;28;20052;-85
2021/05/04 05:29:50;;;;;;;7.82;4.78;;;;;;;;;;5058670;28;20032;-85
2021/05/04 05:32:16;;;;;;;7.95;5.10;;;;;;;;;;5055385;28;20089;-85
2021/05/04 05:34:43;;;;;;;7.90;5.25;;;;;;;;;;5054954;28;20434;-86
2021/05/04 05:37:09;;;;;;;8.60;4.80;;;;;;;;;;5057180;28;20476;-85
2021/05/04 05:39:37;;;;;;;8.35;5.03;;;;;;;;;;5056863;28;20024;-85
2021/05/04 05:42:04;;;;;;;10.23;4.82;;;;;;;;;;5057529;28;20396;-85
2021/05/04 05:44:31;;;;;;;9.30;5.30;;;;;;;;;;5077183;28;20126;-85
2021/05/04 05:46:57;;;;;;;8.52;4.38;;;;;;;;;;5042884;28;20021;-86
2021/05/04 05:49:23;;;;;;;7.82;4.70;;;;;;;;;;5057305;28;20021;-85
2021/05/04 05:51:49;;;;;;;15.13;5.22;;;;;;;;;;5074971;28;20031;-84
2021/05/04 05:54:15;;;;;;;10.15;5.03;;;;;;;;;;5057254;28;20088;-85
2021/05/04 05:56:41;;;;;;;7.10;4.72;;;;;;;;;;5055041;28;20028;-85
2021/05/04 05:59:07;;;;;;;6.93;4.43;;;;;;;;;;5075228;28;20017;-85
2021/05/04 06:01:33;;;;;;;6.38;4.50;;;;;;;;;;5056725;28;20028;-85
2021/05/04 06:03:59;;;;;;;9.27;4.82;;;;;;;;;;5057252;28;20028;-85
2021/05/04 06:06:25;;;;;;;7.68;4.70;;;;;;;;;;5058678;28;20037;-85
2021/05/04 06:08:51;;;;;;;13.20;4.90;;;;;;;;;;5045250;28;20086;-85
2021/05/04 06:11:17;;;;;;;6.05;4.35;;;;;;;;;;5048432;28;20033;-85
2021/05/04 06:13:44;;;;;;;6.15;4.18;;;;;;;;;;5058612;28;20106;-84
2021/05/04 06:16:10;;;;;;;7.35;4.63;;;;;;;;;;5074860;28;20028;-85
2021/05/04 06:18:36;;;;;;;9.05;6.35;;;;;;;;;;5072584;28;20025;-85
2021/05/04 06:21:02;;;;;;;9.52;4.93;;;;;;;;;;5046603;28;20051;-85
2021/05/04 06:23:28;;;;;;;8.75;5.25;;;;;;;;;;5057870;28;20456;-85
2021/05/04 06:25:54;;;;;;;8.18;4.82;;;;;;;;;;5050440;28;20052;-85
2021/05/04 06:28:20;;;;;;;9.88;5.20;;;;;;;;;;5055335;28;20020;-85
2021/05/04 06:30:46;;;;;;;8.65;4.53;;;;;;;;;;5057911;28;20024;-85
2021/05/04 06:33:13;;;;;;;7.60;4.55;;;;;;;;;;5059432;28;20101;-84
2021/05/04 06:35:43;;;;;;;8.63;4.35;;;;;;;;;;5058674;28;20384;-85
2021/05/04 06:38:13;;;;;;;7.13;4.50;;;;;;;;;;5041381;28;20036;-85
2021/05/04 06:40:43;;;;;;;8.93;4.78;;;;;;;;;;5061033;28;20028;-85
2021/05/04 06:43:09;;;;;;;10.98;4.40;;;;;;;;;;5053602;28;20121;-85
2021/05/04 06:45:35;;;;;;;10.55;4.63;;;;;;;;;;5066384;28;20025;-85
2021/05/04 06:48:01;;;;;;;10.27;4.47;;;;;;;;;;5073776;28;20108;-85
2021/05/04 06:50:27;;;;;;;6.88;4.22;;;;;;;;;;5073052;28;20038;-85
2021/05/04 06:52:53;;;;;;;9.07;4.50;;;;;;;;;;5074619;28;20040;-84
2021/05/04 06:55:19;;;;;;;8.00;4.60;;;;;;;;;;5057578;28;20033;-84
2021/05/04 06:57:45;;;;;;;9.35;4.65;;;;;;;;;;5074480;28;20487;-84
2021/05/04 07:00:11;;;;;;;17.27;5.82;;;;;;;;;;5058012;28;20111;-85
2021/05/04 07:02:38;;;;;;;9.45;4.95;;;;;;;;;;5076432;28;20064;-84
2021/05/04 07:05:04;;;;;;;7.45;4.55;;;;;;;;;;5055273;28;20388;-85
2021/05/04 07:07:30;;;;;;;7.15;4.45;;;;;;;;;;5074564;28;20056;-85
2021/05/04 07:09:56;;;;;;;7.68;4.47;;;;;;;;;;5057248;28;20111;-84
2021/05/04 07:12:22;;;;;;;9.07;4.55;;;;;;;;;;5050173;28;20056;-84
2021/05/04 07:14:48;;;;;;;8.10;3.97;;;;;;;;;;5044984;28;20115;-84
2021/05/04 07:17:14;;;;;;;7.53;4.50;;;;;;;;;;5066377;28;20119;-86
2021/05/04 07:19:41;;;;;;;6.25;3.83;;;;;;;;;;5045624;28;20024;-85
2021/05/04 07:22:09;;;;;;;10.75;4.72;;;;;;;;;;5041017;28;20024;-84
2021/05/04 07:24:35;;;;;;;8.85;4.15;;;;;;;;;;5055874;28;20468;-84
2021/05/04 07:27:01;;;;;;;6.97;4.57;;;;;;;;;;5042672;28;20052;-84
2021/05/04 07:29:28;;;;;;;7.43;4.85;;;;;;;;;;5041567;28;20087;-84
2021/05/04 07:31:54;;;;;;;8.07;4.47;;;;;;;;;;5055409;28;20021;-85
2021/05/04 07:34:20;;;;;;;7.10;4.32;;;;;;;;;;5049633;28;20024;-85
2021/05/04 07:36:46;;;;;;;6.40;4.60;;;;;;;;;;5073425;28;20353;-85
2021/05/04 07:39:12;;;;;;;8.80;5.00;;;;;;;;;;5056274;28;20025;-84
2021/05/04 07:41:38;;;;;;;7.25;4.63;;;;;;;;;;5048866;28;20115;-85
2021/05/04 07:44:04;;;;;;;7.35;4.80;;;;;;;;;;5056329;28;20522;-85
2021/05/04 07:46:30;;;;;;;10.00;4.22;;;;;;;;;;5042316;28;20081;-85
2021/05/04 07:48:57;;;;;;;4.97;3.60;;;;;;;;;;5052304;28;20028;-85
2021/05/04 07:51:23;;;;;;;6.72;4.32;;;;;;;;;;5070571;28;20075;-85
2021/05/04 07:53:49;;;;;;;5.05;3.75;;;;;;;;;;5056111;28;20268;-85
2021/05/04 07:56:15;;;;;;;11.13;4.15;;;;;;;;;;5045049;28;20116;-85
2021/05/04 07:58:41;;;;;;;6.40;4.35;;;;;;;;;;5056314;28;20024;-85
2021/05/04 08:01:07;;;;;;;5.93;4.05;;;;;;;;;;5058734;28;20020;-85
2021/05/04 08:03:36;;;;;;;6.47;3.88;;;;;;;;;;5048795;28;20037;-85
2021/05/04 08:06:03;;;;;;;5.65;3.40;;;;;;;;;;5069522;28;20079;-85
2021/05/04 08:08:29;;;;;;;7.53;3.42;;;;;;;;;;5058283;28;20052;-85
2021/05/04 08:10:55;;;;;;;6.20;3.28;;;;;;;;;;5062226;28;20384;-85
2021/05/04 08:13:21;;;;;;;4.18;3.13;;;;;;;;;;5045423;28;20036;-85
2021/05/04 08:15:52;;;;;;;5.85;3.28;;;;;;;;;;5043443;28;20028;-85
2021/05/04 08:18:18;;;;;;;6.53;3.15;;;;;;;;;;5052673;28;20070;-85
2021/05/04 08:20:48;;;;;;;5.35;2.95;;;;;;;;;;5054359;28;20108;-85
2021/05/04 08:23:14;;;;;;;7.25;2.90;;;;;;;;;;5046739;28;20028;-85
2021/05/04 08:25:40;;;;;;;5.78;3.33;;;;;;;;;;5047758;28;20132;-85
2021/05/04 08:28:06;;;;;;;5.07;2.60;;;;;;;;;;5049411;28;20036;-85
2021/05/04 08:30:32;;;;;;;5.78;3.60;;;;;;;;;;5050107;28;20024;-85
2021/05/04 08:32:59;;;;;;;6.68;3.05;;;;;;;;;;5063982;28;20425;-85
2021/05/04 08:35:26;;;;;;;5.72;2.60;;;;;;;;;;5070494;28;20059;-85
2021/05/04 08:37:52;;;;;;;5.55;3.05;;;;;;;;;;5049070;28;20025;-85
2021/05/04 08:40:18;;;;;;;5.20;2.70;;;;;;;;;;5055545;28;20676;-85
2021/05/04 08:42:44;;;;;;;4.97;2.83;;;;;;;;;;5054033;28;20028;-85
2021/05/04 08:45:11;;;;;;;3.83;2.47;;;;;;;;;;5057568;28;20032;-85
2021/05/04 08:47:37;;;;;;;3.30;2.17;;;;;;;;;;5075007;28;20555;-85
2021/05/04 08:50:03;;;;;;;3.75;2.45;;;;;;;;;;5063910;28;20099;-85
2021/05/04 08:52:29;;;;;;;7.65;2.60;;;;;;;;;;5065181;28;20537;-85
2021/05/04 08:54:55;;;;;;;3.28;2.33;;;;;;;;;;5053444;28;20032;-85
2021/05/04 08:57:21;;;;;;;3.40;2.30;;;;;;;;;;5074291;28;20048;-84
2021/05/04 08:59:47;;;;;;;5.65;2.60;;;;;;;;;;5055714;28;20043;-85
2021/05/04 09:02:14;;;;;;;5.68;2.20;;;;;;;;;;5064630;28;20434;-84
2021/05/04 09:04:50;;;;;;;4.35;2.03;;;;;;;;;;5048580;28;20025;-84
2021/05/04 09:07:28;;;;;;;2.80;2.10;;;;;;;;;;5073397;28;20028;-84
2021/05/04 09:10:51;;;;;;;9.20;2.38;;;;;;;;;;5050810;28;20549;-85
2021/05/04 09:12:52;;;;;;;5.85;2.00;;;;;;;;;;5061894;28;20034;-84
2021/05/04 09:15:39;;;;;;;3.85;2.35;;;;;;;;;;5054278;28;20036;-84
2021/05/04 09:18:25;;;;;;;5.45;2.20;;;;;;;;;;5054431;28;20062;-84
2021/05/04 09:21:03;;;;;;;3.42;1.70;;;;;;;;;;5052332;28;20048;-85
2021/05/04 09:23:29;;;;;;;4.55;1.95;;;;;;;;;;5047423;28;20111;-84
2021/05/04 09:25:56;;;;;;;3.97;2.22;;;;;;;;;;5053355;28;20071;-84
2021/05/04 09:28:22;;;;;;;9.00;2.17;;;;;;;;;;5060383;28;20024;-84
2021/05/04 09:30:51;;;;;;;2.70;1.95;;;;;;;;;;5059099;28;20028;-84
2021/05/04 09:33:17;;;;;;;5.55;2.08;;;;;;;;;;5063864;28;20029;-84
2021/05/04 09:35:43;;;;;;;2.28;1.65;;;;;;;;;;5054085;28;20033;-84
2021/05/04 09:38:10;;;;;;;4.85;1.70;;;;;;;;;;5058022;28;20081;-84
2021/05/04 09:40:37;;;;;;;5.70;1.77;;;;;;;;;;5061776;28;20017;-84
2021/05/04 09:43:09;;;;;;;4.32;1.65;;;;;;;;;;5057288;28;20025;-85
2021/05/04 09:45:37;;;;;;;4.75;1.88;;;;;;;;;;5056068;28;20467;-85
2021/05/04 09:48:22;;;;;;;3.78;2.15;;;;;;;;;;5051766;28;20123;-84
2021/05/04 09:50:50;;;;;;;2.67;1.40;;;;;;;;;;5055487;28;20031;-84
2021/05/04 09:53:37;;;;;;;2.55;1.52;;;;;;;;;;5051149;28;20020;-85
2021/05/04 09:56:03;;;;;;;4.68;1.20;;;;;;;;;;5051332;28;20032;-85
2021/05/04 09:58:34;;;;;;;3.13;1.40;;;;;;;;;;5050493;28;20071;-85
2021/05/04 10:01:00;;;;;;;8.43;1.98;;;;;;;;;;5051215;28;20067;-85
2021/05/04 10:03:27;;;;;;;8.07;1.45;;;;;;;;;;5048242;28;20024;-85
2021/05/04 10:05:53;;;;;;;2.42;1.25;;;;;;;;;;5072549;28;20028;-85
2021/05/04 10:08:19;;;;;;;3.50;1.50;;;;;;;;;;5054056;28;20468;-85
2021/05/04 10:10:46;;;;;;;3.63;1.33;;;;;;;;;;5056411;28;20047;-85
2021/05/04 10:13:13;;;;;;;3.30;1.33;;;;;;;;;;5058306;28;20070;-85
2021/05/04 10:15:39;;;;;;;3.05;1.40;;;;;;;;;;5047209;28;20031;-87
2021/05/04 10:18:05;;;;;;;12.68;1.52;;;;;;;;;;5049903;28;20033;-85
2021/05/04 10:20:31;;;;;;;3.15;1.48;;;;;;;;;;5055710;28;20031;-85
2021/05/04 10:22:58;;;;;;;4.72;1.88;;;;;;;;;;5054431;28;20025;-85
2021/05/04 10:25:24;;;;;;;3.03;1.30;;;;;;;;;;5048874;28;20047;-85
2021/05/04 10:27:51;;;;;;;3.75;1.30;;;;;;;;;;5073076;28;20076;-85
2021/05/04 10:30:21;;;;;;;5.25;1.20;;;;;;;;;;5051277;28;20021;-85
2021/05/04 10:32:51;;;;;;;4.00;1.40;;;;;;;;;;5075868;28;20032;-85
2021/05/04 10:35:32;;;;;;;2.85;1.25;;;;;;;;;;5051884;28;20504;-85
2021/05/04 10:37:58;;;;;;;4.78;1.30;;;;;;;;;;5064103;28;20024;-84
2021/05/04 10:40:29;;;;;;;2.15;1.30;;;;;;;;;;5042212;28;20452;-86
2021/05/04 10:42:55;;;;;;;8.40;1.90;;;;;;;;;;5052799;28;20084;-85
2021/05/04 10:45:37;;;;;;;4.00;1.35;;;;;;;;;;5044844;28;20124;-86
2021/05/04 10:48:03;;;;;;;3.13;1.13;;;;;;;;;;5054667;28;20341;-86
2021/05/04 10:50:49;;;;;;;6.50;1.50;;;;;;;;;;5034424;28;20037;-86
2021/05/04 10:53:16;;;;;;;6.45;1.80;;;;;;;;;;5049202;28;20079;-85
2021/05/04 10:55:54;;;;;;;3.28;1.40;;;;;;;;;;5048707;28;20052;-85
2021/05/04 10:58:24;;;;;;;3.17;1.25;;;;;;;;;;5052960;28;20025;-86
2021/05/04 11:00:53;;;;;;;3.75;1.40;;;;;;;;;;5050982;28;20534;-85
2021/05/04 11:03:35;;;;;;;3.15;1.55;;;;;;;;;;5043167;28;20024;-86
2021/05/04 11:06:02;;;;;;;2.70;1.70;;;;;;;;;;5064283;28;20034;-86
2021/05/04 11:08:43;;;;;;;2.30;1.30;;;;;;;;;;5049947;28;20468;-86
2021/05/04 11:11:20;;;;;;;4.05;1.45;;;;;;;;;;5052588;28;20102;-87
2021/05/04 11:13:50;;;;;;;2.63;1.20;;;;;;;;;;5055456;28;20032;-86
2021/05/04 11:16:35;;;;;;;4.63;1.38;;;;;;;;;;5069397;28;20032;-87
2021/05/04 11:19:06;;;;;;;6.60;1.10;;;;;;;;;;5049458;28;20033;-86
2021/05/04 11:21:45;;;;;;;4.25;1.15;;;;;;;;;;5047788;28;20020;-86
2021/05/04 11:24:15;;;;;;;1.98;1.10;;;;;;;;;;5062587;28;20488;-86
2021/05/04 11:26:45;;;;;;;5.63;1.05;;;;;;;;;;5051180;28;20028;-86
2021/05/04 11:29:13;;;;;;;5.75;0.98;;;;;;;;;;5068370;28;20475;-86
2021/05/04 11:31:49;;;;;;;6.32;1.10;;;;;;;;;;5055017;28;20085;-86
2021/05/04 11:34:37;;;;;;;7.95;1.58;;;;;;;;;;5055832;28;20123;-86
2021/05/04 11:37:04;;;;;;;9.55;1.23;;;;;;;;;;5054380;28;20033;-86
2021/05/04 11:39:30;;;;;;;4.63;0.90;;;;;;;;;;5055051;28;20090;-86
2021/05/04 11:42:00;;;;;;;7.15;1.40;;;;;;;;;;5056762;28;20028;-86
2021/05/04 11:44:27;;;;;;;1.67;1.27;;;;;;;;;;5054503;28;20115;-86
2021/05/04 11:46:54;;;;;;;2.47;1.02;;;;;;;;;;5051569;28;20439;-85
2021/05/04 11:49:28;;;;;;;5.68;1.00;;;;;;;;;;5051676;28;20177;-85
2021/05/04 11:52:04;;;;;;;9.00;0.90;;;;;;;;;;5055091;28;20063;-86
2021/05/04 11:54:31;;;;;;;5.47;1.05;;;;;;;;;;5054370;28;20481;-85
2021/05/04 11:56:57;;;;;;;2.65;0.88;;;;;;;;;;5053523;28;20115;-85
2021/05/04 11:59:25;;;;;;;1.30;0.70;;;;;;;;;;5072800;28;20103;-84
2021/05/04 12:01:51;;;;;;;2.15;0.88;;;;;;;;;;5067424;28;20025;-85
2021/05/04 12:04:18;;;;;;;3.35;1.10;;;;;;;;;;5068744;28;20468;-85
2021/05/04 12:06:45;;;;;;;3.42;0.80;;;;;;;;;;5053225;28;20472;-85
2021/05/04 12:09:20;;;;;;;6.22;1.00;;;;;;;;;;5053744;28;20040;-86
2021/05/04 12:11:46;;;;;;;1.77;1.27;;;;;;;;;;5046533;28;20056;-86
2021/05/04 12:14:12;;;;;;;1.90;1.17;;;;;;;;;;5050917;28;20062;-85
2021/05/04 12:16:38;;;;;;;2.25;1.00;;;;;;;;;;5052154;28;20020;-85
2021/05/04 12:19:04;;;;;;;2.85;1.00;;;;;;;;;;5066721;28;20111;-85
2021/05/04 12:21:30;;;;;;;3.05;1.40;;;;;;;;;;5050142;28;20484;-85
2021/05/04 12:23:56;;;;;;;2.92;1.00;;;;;;;;;;5068342;28;20021;-85
2021/05/04 12:26:22;;;;;;;1.73;1.10;;;;;;;;;;5049180;28;20040;-85
2021/05/04 12:28:50;;;;;;;1.70;0.95;;;;;;;;;;5053873;28;20518;-85
2021/05/04 12:31:37;;;;;;;1.63;1.05;;;;;;;;;;5063695;28;20104;-85
2021/05/04 12:34:04;;;;;;;3.00;1.15;;;;;;;;;;5049462;28;20452;-85
2021/05/04 12:36:35;;;;;;;3.47;1.00;;;;;;;;;;5051649;28;20090;-87
2021/05/04 12:39:06;;;;;;;1.45;0.85;;;;;;;;;;5047027;28;20031;-86
2021/05/04 12:41:33;;;;;;;4.05;1.10;;;;;;;;;;5045594;28;20009;-85
2021/05/04 12:46:33;;;;;;;1.80;0.88;;;;;;;;;;5075454;28;20472;-85
2021/05/04 12:49:00;;;;;;;2.83;1.15;;;;;;;;;;5055696;28;20032;-85
2021/05/04 12:51:31;;;;;;;3.50;1.10;;;;;;;;;;5057332;28;20033;-86
2021/05/04 12:54:14;;;;;;;4.93;1.45;;;;;;;;;;5064231;28;20484;-86
2021/05/04 12:56:40;;;;;;;3.65;1.02;;;;;;;;;;5059244;28;20308;-86
2021/05/04 12:59:08;;;;;;;1.45;1.10;;;;;;;;;;5054576;28;20020;-85
2021/05/04 13:01:42;;;;;;;2.28;1.10;;;;;;;;;;5053388;28;20082;-86
2021/05/04 13:04:26;;;;;;;3.72;1.13;;;;;;;;;;5068290;28;20029;-85
2021/05/04 13:07:10;;;;;;;3.03;0.50;;;;;;;;;;5069543;28;20042;-85
2021/05/04 13:09:53;;;;;;;5.28;1.00;;;;;;;;;;5055143;28;20496;-84
2021/05/04 13:12:45;;;;;;;5.85;1.13;;;;;;;;;;5067123;28;20081;-84
2021/05/04 13:16:07;;;;;;;7.35;1.05;;;;;;;;;;5067880;28;20021;-84
2021/05/04 13:32:07;;;;;;;1.40;0.60;;;;;;;;;;5059695;28;20039;-84
2021/05/04 13:34:49;;;;;;;2.83;1.05;;;;;;;;;;5061832;28;20029;-85
2021/05/04 13:37:19;;;;;;;4.82;0.98;;;;;;;;;;5062950;28;20032;-85
2021/05/04 13:39:56;;;;;;;1.90;0.80;;;;;;;;;;5051869;28;20059;-84
2021/05/04 13:47:53;;;;;;;8.02;1.33;;;;;;;;;;5075887;28;20396;-85
2021/05/04 13:50:21;;;;;;;2.13;0.90;;;;;;;;;;5075573;28;20104;-85
2021/05/04 13:52:47;;;;;;;6.65;1.15;;;;;;;;;;5068084;28;20028;-85
2021/05/04 13:55:15;;;;;;;3.10;0.85;;;;;;;;;;5069839;28;20060;-85
2021/05/04 13:57:42;;;;;;;9.35;0.80;;;;;;;;;;5067464;28;20021;-85
2021/05/04 14:00:09;;;;;;;2.83;1.20;;;;;;;;;;5076366;28;20666;-85
2021/05/04 14:24:32;;;;;;;8.05;0.98;;;;;;;;;;5070264;28;20066;-85
2021/05/04 14:27:13;;;;;;;4.55;1.20;;;;;;;;;;5073554;28;20051;-84
2021/05/04 14:29:39;;;;;;;4.75;1.23;;;;;;;;;;5052304;28;20025;-85
2021/05/04 14:32:05;;;;;;;5.07;0.80;;;;;;;;;;5055084;28;20016;-84
2021/05/04 14:34:33;;;;;;;7.88;1.20;;;;;;;;;;5051594;28;20472;-85
2021/05/04 14:37:07;;;;;;;4.53;0.82;;;;;;;;;;5063737;28;20460;-84
2021/05/04 14:39:46;;;;;;;10.68;1.15;;;;;;;;;;5048497;28;20029;-84
2021/05/04 14:42:50;;;;;;;8.35;1.23;;;;;;;;;;5051163;28;20032;-84
2021/05/04 14:53:34;;;;;;;;;;;;;;;;;;5006523;28;20034;-84
2021/05/04 14:56:46;;;;;;;6.40;1.00;;;;;;;;;;5059485;28;20040;-86
2021/05/04 14:59:19;;;;;;;8.27;0.90;;;;;;;;;;5048386;28;20032;-86
2021/05/04 15:01:46;;;;;;;6.90;0.65;;;;;;;;;;5055536;28;20430;-86
2021/05/04 15:04:15;;;;;;;1.92;0.60;;;;;;;;;;5065231;28;20017;-86
2021/05/04 15:06:41;;;;;;;6.25;1.00;;;;;;;;;;5051395;28;20029;-86
2021/05/04 15:09:09;;;;;;;6.32;0.80;;;;;;;;;;5056702;28;20078;-86
2021/05/04 15:11:36;;;;;;;3.22;0.73;;;;;;;;;;5057366;28;20028;-86
2021/05/04 15:14:02;;;;;;;2.25;0.98;;;;;;;;;;5056378;28;20392;-86
2021/05/04 15:16:39;;;;;;;4.25;0.80;;;;;;;;;;5058899;28;20468;-87
2021/05/04 15:21:56;;;;;;;4.85;1.00;;;;;;;;;;5074923;28;20388;-86
2021/05/04 15:24:22;;;;;;;7.30;0.93;;;;;;;;;;5055459;28;20021;-88
2021/05/04 15:26:48;;;;;;;2.30;0.90;;;;;;;;;;5055868;28;20047;-87
2021/05/04 15:29:14;;;;;;;2.90;0.70;;;;;;;;;;5056322;28;20562;-86
2021/05/04 15:31:52;;;;;;;3.22;0.85;;;;;;;;;;5045335;28;20114;-86
2021/05/04 15:34:19;;;;;;;5.18;0.80;;;;;;;;;;5051797;28;20052;-86
2021/05/04 15:36:45;;;;;;;5.65;0.95;;;;;;;;;;5056311;28;20039;-86
2021/05/04 15:39:11;;;;;;;5.43;1.02;;;;;;;;;;5046104;28;20023;-85
2021/05/04 15:41:39;;;;;;;7.50;1.00;;;;;;;;;;5056500;28;20033;-85
2021/05/04 15:44:06;;;;;;;8.18;0.95;;;;;;;;;;5057935;28;20023;-85